Aérodrome :
LOGIN :

S'inscrire | Disclaimer

   EN    FR    IT 

 










Légende :    VFR   VFR Marginal   IFR   IFR Intensif   IFR Très Intensif
Visi : 
Plafond : 
>= 8 km
>= 3000ft
5 à 8 km
1000 à 3000 ft
1500m à 5 km
500 à 1000 ft
800 à 1500m
200 à 500 ft
< 800m
< 200 ft
Symboles :   Orages  Brouillard  Fortes neiges  Fortes précipitations  Vent > 20 kt
SIGMETs :   Divers  Orages  Givrage  Turbulence  Onde Orograph.  Cendres Volcan.







- Altitude de l'aérodrome : 461 ft
- Code IATA : WIE


ETOU - Wiesbaden Army

DERNIER METAR :
  • 220606Z AUTO 25016KT 9999 -RA FEW017 SCT024 OVC033 10/09 A2985 RMK AO2 RAB06

METARs EXPIRÉS :
  • 220547Z AUTO 24015G20KT 9999 SCT028 BKN034 OVC044 10/09 A2985 RMK AO2 RAE03DZB03E05RAB05E09DZB09E13RAB13E14
  • 220538Z AUTO 24016G20KT 9999 SCT021 BKN029 BKN036 OVC047 10/09 A2985 RMK AO2 RAE03DZB03E05RAB05E09DZB09E13RAB13E14 CIG 022V030
  • 220519Z AUTO 24011KT 9999 SCT012 OVC021 10/09 A2985 RMK AO2 RAE03DZB03E05RAB05E09DZB09E13RAB13E14 CIG 012V021
  • 220514Z AUTO 25014G18KT 9999 BKN012 OVC019 10/09 A2986 RMK AO2 RAE03DZB03E05RAB05E09DZB09E13RAB13E14
  • 220504Z AUTO 24011KT 9999 -DZ OVC015 10/09 A2986 RMK AO2 RAE03DZB03
  • 220454Z AUTO 25013KT 9999 -RA FEW009 BKN014 OVC019 10/09 A2986 RMK AO2 RAB30E49RAB51 CIG 012V018
  • 220437Z AUTO 25011KT 9999 -RA BKN016 BKN021 OVC026 10/09 A2987 RMK AO2 RAB30 CIG 016V022 BKN016 V SCT
  • 220430Z AUTO 25012KT 9999 -RA FEW015 OVC021 10/09 A2987 RMK AO2 RAB30 OVC V BKN
  • 220358Z AUTO 25010KT 9999 FEW012 OVC022 10/09 A2988 RMK AO2 DZE00RAB00E21DZB21E23 SLP122 P0001 T01020091
  • 220341Z AUTO 26010KT 9999 SCT010 OVC023 10/09 A2988 RMK AO2 DZE00RAB00E21DZB21E23 CIG 009V023
  • 220327Z AUTO 26011KT 9999 BKN009 BKN013 OVC022 10/09 A2988 RMK AO2 DZE00RAB00E21DZB21E23
  • 220323Z AUTO 26012KT 9999 BKN008 OVC022 10/09 A2988 RMK AO2 DZE00RAB00E21DZB21E23
  • 220311Z AUTO 26013KT 9000 -RA BR BKN008 OVC020 10/09 A2988 RMK AO2 DZE00RAB00

TAF TAF ETOU
Valide du 22 à 04h jusqu'au 23 à 10h UTC


220407Z 2204/2310 24012KT 8000 -RA BKN020 620509 621404 QNH2983INS
TEMPO 2204/2206 24015G25KT 510004
BECMG 2205/2206 24025G35KT 8000 -RA BKN020 540003 QNH2978INS
BECMG 2305/2306 23015G25KT 9999 NSW BKN015 620709 621602 510003 QNH2980INS TX12/2215Z TN08/2304Z
Pas de NOTAMs connus pour ce terrain.



MET'MAP, la Météo Aéronautique d'un coup d'oeil ! - Copyright ORBIFLY Décembre 2007 - Disclaimer

ORBIFLY MET'MAP TEAM :

Programmation & Développement : Alexandra Zaïnal
Conception & Développement : Baudouin d'Aumeries
Co-Programmation & Développement : Marc-Olivier Méhu
Soutien technique & logistique : Manuel Goepfert

Contact : metmap@orbifly.com




SOURCES & CREDITS :

   NOAA